Time;durP1;ratioP1;P1;durP2;ratioP2;P2;SDS_P1;SDS_P2;PMS_P1;PMS_P2;Temp;Humidity;BMP_temperature;BMP_pressure;BME280_temperature;BME280_humidity;BME280_pressure;Samples;Min_cycle;Max_cycle;Signal;HPM_P1;HPM_P2
2022/03/28 20:22:40;;;;;;;41.93;36.87;;;;;;;;;;5524107;22;94077;-81
2022/03/28 20:25:26;;;;;;;32.03;27.37;;;;;;;;;;4940912;28;91436;-81
2022/03/28 20:28:47;;;;;;;31.30;21.97;;;;;;;;;;4946146;28;92105;-80
2022/03/28 20:31:36;;;;;;;109.73;101.80;;;;;;;;;;4938947;28;92155;-81
2022/03/28 20:34:24;;;;;;;69.47;63.50;;;;;;;;;;4955797;28;95071;-81
2022/03/28 20:37:10;;;;;;;74.53;67.43;;;;;;;;;;4939904;28;93889;-80
2022/03/28 20:40:04;;;;;;;56.80;40.00;;;;;;;;;;4932677;28;92229;-81
2022/03/28 20:42:51;;;;;;;60.40;39.23;;;;;;;;;;4935525;28;92275;-82
2022/03/28 20:46:07;;;;;;;52.63;35.33;;;;;;;;;;4956851;28;92560;-81
2022/03/28 20:48:53;;;;;;;55.27;35.67;;;;;;;;;;4955869;28;92002;-81
2022/03/28 20:52:08;;;;;;;75.20;53.10;;;;;;;;;;4939071;28;92516;-81
2022/03/28 20:54:55;;;;;;;51.83;35.80;;;;;;;;;;4947581;28;91517;-81
2022/03/28 20:57:42;;;;;;;31.67;22.83;;;;;;;;;;4941755;28;92734;-81
2022/03/28 21:00:29;;;;;;;25.23;19.40;;;;;;;;;;4934002;28;92588;-81
2022/03/28 21:03:16;;;;;;;26.90;20.57;;;;;;;;;;4946336;28;94585;-81
2022/03/28 21:06:05;;;;;;;23.80;17.70;;;;;;;;;;4948019;28;92140;-80
2022/03/28 21:08:52;;;;;;;22.97;18.47;;;;;;;;;;4934090;28;92603;-81
2022/03/28 21:11:45;;;;;;;25.50;18.87;;;;;;;;;;4939132;28;93688;-81
2022/03/28 21:14:32;;;;;;;23.43;18.30;;;;;;;;;;4944002;28;92332;-82
2022/03/28 21:17:39;;;;;;;23.37;16.70;;;;;;;;;;4959817;28;92206;-81
2022/03/28 21:20:26;;;;;;;20.80;17.20;;;;;;;;;;4946927;28;92143;-82
2022/03/28 22:29:14;;;;;;;23.97;19.20;;;;;;;;;;4944200;28;91445;-82
2022/03/28 22:32:07;;;;;;;24.70;20.43;;;;;;;;;;4931749;28;91361;-80
2022/03/28 22:34:54;;;;;;;25.90;19.57;;;;;;;;;;4944454;28;91382;-81
2022/03/28 22:38:04;;;;;;;24.63;18.80;;;;;;;;;;4922918;28;94689;-81
2022/03/28 22:40:50;;;;;;;27.17;21.10;;;;;;;;;;4948383;28;93787;-81
2022/03/28 22:50:53;;;;;;;23.03;19.90;;;;;;;;;;4938760;28;92575;-81
2022/03/28 22:53:39;;;;;;;25.17;18.77;;;;;;;;;;4925066;28;92228;-82
2022/03/28 22:59:54;;;;;;;27.00;21.63;;;;;;;;;;4951434;28;91372;-81
2022/03/28 23:02:42;;;;;;;26.10;21.10;;;;;;;;;;4949144;28;92736;-81
2022/03/28 23:05:53;;;;;;;27.10;22.53;;;;;;;;;;4937256;28;92235;-81
2022/03/28 23:08:39;;;;;;;25.90;21.67;;;;;;;;;;4920269;28;94646;-82
2022/03/28 23:11:47;;;;;;;27.30;21.70;;;;;;;;;;4935052;28;92231;-82
2022/03/28 23:14:34;;;;;;;25.67;21.47;;;;;;;;;;4950243;28;92544;-81
2022/03/28 23:17:55;;;;;;;28.00;23.00;;;;;;;;;;4953978;28;91850;-81
2022/03/28 23:20:42;;;;;;;29.00;23.13;;;;;;;;;;4939840;28;91993;-81
2022/03/28 23:39:08;;;;;;;32.87;27.53;;;;;;;;;;4924815;28;95079;-81
2022/03/28 23:41:55;;;;;;;31.20;25.20;;;;;;;;;;4907645;28;95090;-81
2022/03/28 23:48:26;;;;;;;31.30;24.90;;;;;;;;;;4910699;28;92398;-81
2022/03/28 23:51:12;;;;;;;30.30;24.87;;;;;;;;;;4913434;28;92683;-81
2022/03/28 23:57:36;;;;;;;29.77;24.70;;;;;;;;;;4922031;28;92308;-81
